Latest Coastal Weather Observations for Weipa

IDQ60701

Issued at 11:31 am EST Monday 2 May 2016 (issued every 10 minutes, with the page automatically refreshed every 10 minutes)

About coastal observations | Map of coastal stations | Coastal observations for QLD | Marine services | Other Formats
Station Details ID: 027045 Name: WEIPA AERO Lat: -12.68 Lon: 141.92 Height: 17.96 m
Data from the previous 72 hours. | See also: Recent months at Weipa
Date/Time
EST
Temp

°C
Wind Pressure Rain
since 9am
mm
Weather Cloud Vis
km
Sea
Height
m
Swell
Dir
 
Speed
knots
Gust
knots
hPa Trend Height
m
Period
s
Dir
02/11:30am 30.5 ESE 11 15 1011.6 - 0.0 - Partly cloudy 10 - - - -
02/11:00am 30.4 E 11 17 1011.9 - 0.0 - - 10 - - - -
02/10:30am 30.3 ESE 11 16 1012.0 - 0.0 - Partly cloudy 10 - - - -
02/10:00am 29.1 E 9 15 1012.1 - 0.0 - - 10 - - - -
02/09:30am 28.4 ESE 7 13 1012.3 - 0.0 - - 10 - - - -
02/09:00am 27.5 ESE 9 12 1012.2 R 8.8 Haze Clear 30 - - - -
02/08:30am 26.6 ESE 9 13 1012.3 - 8.8 - - 9 - - - -
02/08:00am 25.4 E 5 9 1012.4 - 8.8 - - 7 - - - -
02/07:59am 25.4 E 5 8 1012.4 - 8.8 - - 7 - - - -
02/07:30am 24.4 E 2 4 1012.3 - 8.8 - - 3 - - - -
02/07:00am 23.8 E 1 3 1012.0 - 8.8 - - 5 - - - -
02/06:30am 23.6 ESE 2 3 1011.5 - 8.8 - - 4 - - - -
02/06:00am 23.6 ESE 2 4 1011.0 - 8.8 - - 5 - - - -
02/05:30am 23.8 E 1 3 1011.1 - 8.8 - - 5 - - - -
02/05:00am 23.9 CALM 0 0 1011.0 - 8.8 - - 5 - - - -
02/04:30am 23.9 SE 1 4 1010.7 - 8.8 - - 5 - - - -
02/04:00am 23.9 SSE 1 3 1010.7 - 8.8 - - 5 - - - -
02/03:30am 24.0 SSE 1 3 1010.6 - 8.8 - - 5 - - - -
02/03:00am 24.1 SSE 1 4 1010.4 - 8.8 - - 6 - - - -
02/02:58am 24.1 SSE 2 4 1010.6 - 8.8 - - 6 - - - -
02/02:43am 24.3 SE 3 5 1010.6 - 8.8 - - 7 - - - -
02/02:30am 24.2 CALM 0 1 1010.7 - 8.8 - - 7 - - - -
02/02:00am 24.2 CALM 0 0 1011.0 - 8.8 - - 6 - - - -
02/01:58am 24.3 CALM 0 0 1011.0 - 8.8 - - 6 - - - -
02/01:30am 24.4 CALM 0 0 1011.4 - 8.8 - - 7 - - - -
02/01:00am 24.7 CALM 0 0 1011.7 - 8.8 - - 9 - - - -
02/12:30am 24.8 CALM 0 0 1012.1 - 8.8 - - 10 - - - -
02/12:00am 25.0 CALM 0 0 1011.9 - 8.8 - - 10 - - - -
 
Date/Time
EST
Temp

°C
Wind Pressure Rain
since 9am
mm
Weather Cloud Vis
km
Sea
Height
m
Swell
Dir
 
Speed
knots
Gust
knots
hPa Trend Height
m
Period
s
Dir
01/11:30pm 25.1 SE 2 5 1012.1 - 8.8 - - 10 - - - -
01/11:00pm 25.2 SE 2 5 1012.2 - 8.8 - - 10 - - - -
01/10:30pm 25.3 ESE 1 3 1012.2 - 8.8 - - 10 - - - -
01/10:00pm 25.4 ESE 3 6 1012.2 - 8.8 - - 10 - - - -
01/09:30pm 25.6 ESE 5 7 1012.1 - 8.8 - - 10 - - - -
01/09:00pm 25.9 E 5 7 1011.8 - 8.8 - - 10 - - - -
01/08:30pm 26.1 E 6 8 1011.9 - 8.8 - - 10 - - - -
01/08:00pm 26.1 E 5 8 1011.8 - 8.8 - - 10 - - - -
01/07:30pm 26.1 E 4 7 1011.5 - 8.8 - Partly cloudy 10 - - - -
01/07:00pm 26.1 ESE 4 6 1011.1 - 8.8 - - 10 - - - -
01/06:30pm 26.2 SE 6 9 1010.7 - 8.8 - Partly cloudy 10 - - - -
01/06:00pm 26.5 SE 7 10 1010.5 - 8.8 - - 10 - - - -
01/05:30pm 26.4 SE 7 11 1010.6 - 8.8 - Partly cloudy 10 - - - -
01/05:17pm 26.1 ESE 8 10 1010.4 - 8.8 - Partly cloudy 7 - - - -
01/05:00pm 25.7 SE 10 16 1010.4 - 8.4 - Partly cloudy 5 - - - -
01/04:48pm 26.5 ESE 13 20 1010.4 - 7.2 - - 5 - - - -
01/04:30pm 27.6 ENE 2 6 1010.0 - 5.8 - Partly cloudy 10 - - - -
01/04:00pm 27.5 E 2 4 1009.9 - 5.8 - Partly cloudy 10 - - - -
01/03:40pm 27.2 E 3 6 1009.7 - 5.8 - - 10 - - - -
01/03:30pm 27.2 SE 8 18 1010.0 - 5.8 - Partly cloudy 5 - - - -
01/03:21pm 27.6 SE 10 18 1009.9 - 5.8 - Partly cloudy 5 - - - -
01/03:00pm 28.7 CALM 0 3 1009.5 - 5.2 - Mostly cloudy 10 - - - -
01/02:58pm 28.6 CALM 0 3 1009.8 - 5.2 - Partly cloudy 10 - - - -
01/02:30pm 27.7 SSE 2 19 1009.8 - 4.6 - Partly cloudy 0.5 - - - -
01/02:22pm 28.2 E 10 19 1010.2 - 2.6 - Partly cloudy 4 - - - -
01/02:00pm 33.2 ESE 9 14 1009.9 - 0.0 - Partly cloudy 10 - - - -
01/01:30pm 33.9 ESE 11 19 1010.1 - 0.0 - Partly cloudy 10 - - - -
01/01:00pm 32.2 E 10 15 1010.5 - 0.0 - Partly cloudy 10 - - - -
01/12:30pm 31.6 E 10 15 1011.0 - 0.0 - Partly cloudy 10 - - - -
01/12:00pm 31.7 ESE 9 13 1011.3 - 0.0 - Cloudy 10 - - - -
01/11:30am 31.6 ESE 11 15 1012.0 - 0.0 - Partly cloudy 10 - - - -
01/11:00am 30.9 ESE 12 16 1012.5 - 0.0 - Partly cloudy 10 - - - -
01/10:30am 30.5 E 12 17 1012.9 - 0.0 - - 10 - - - -
01/10:00am 29.4 E 11 17 1013.1 - 0.0 - Partly cloudy 10 - - - -
01/09:30am 29.2 ESE 12 17 1013.0 - 0.0 - - 10 - - - -
01/09:00am 28.4 ESE 10 15 1012.6 S 0.0 Haze Mostly clear 30 - - - -
01/08:30am 27.5 ESE 10 14 1012.7 - 0.0 - - 8 - - - -
01/08:07am 26.4 ESE 6 9 1012.7 - 0.0 - - 7 - - - -
01/08:00am 26.1 ESE 5 8 1012.7 - 0.0 - - 7 - - - -
01/07:30am 24.9 ESE 4 6 1012.5 - 0.0 - - 5 - - - -
01/07:00am 24.4 ESE 3 5 1012.3 - 0.0 - - 5 - - - -
01/06:30am 24.3 SE 2 5 1012.0 - 0.0 - - 4 - - - -
01/06:00am 24.3 ESE 2 4 1011.5 - 0.0 - - 5 - - - -
01/05:30am 24.4 ESE 3 4 1011.3 - 0.0 - - 5 - - - -
01/05:00am 24.5 CALM 0 0 1011.3 - 0.0 - - 5 - - - -
01/04:30am 24.6 SE 2 5 1011.2 - 0.0 - - 5 - - - -
01/04:00am 24.6 SE 2 4 1010.8 - 0.0 - - 5 - - - -
01/03:30am 24.6 SSE 3 5 1010.7 - 0.0 - - 5 - - - -
01/03:00am 24.7 SE 4 7 1010.6 - 0.0 - - 6 - - - -
01/02:34am 24.6 CALM 0 4 1010.9 - 0.0 - - 6 - - - -
01/02:30am 24.6 CALM 0 0 1010.9 - 0.0 - - 7 - - - -
01/02:00am 24.7 CALM 0 0 1011.2 - 0.0 - - 8 - - - -
01/01:30am 24.8 CALM 0 0 1011.6 - 0.0 - - 9 - - - -
01/01:00am 25.0 CALM 0 0 1011.7 - 0.0 - - 10 - - - -
01/12:30am 25.0 CALM 0 0 1012.0 - 0.0 - - 10 - - - -
01/12:00am 25.2 CALM 0 3 1011.9 - 0.0 - - 10 - - - -
 
Date/Time
EST
Temp

°C
Wind Pressure Rain
since 9am
mm
Weather Cloud Vis
km
Sea
Height
m
Swell
Dir
 
Speed
knots
Gust
knots
hPa Trend Height
m
Period
s
Dir
30/11:30pm 25.6 CALM 0 0 1012.4 - 0.0 - - 10 - - - -
30/11:00pm 25.9 CALM 0 0 1012.5 - 0.0 - - 10 - - - -
30/10:30pm 26.3 CALM 0 0 1012.4 - 0.0 - - 10 - - - -
30/10:00pm 26.5 E 2 5 1012.2 - 0.0 - - 10 - - - -
30/09:30pm 26.8 E 1 4 1011.9 - 0.0 - - 10 - - - -
30/09:00pm 27.1 ESE 2 4 1011.5 - 0.0 - - 10 - - - -
30/08:30pm 27.6 ESE 5 7 1011.2 - 0.0 - - 10 - - - -
30/08:00pm 28.1 E 5 8 1010.8 - 0.0 - - 10 - - - -
30/07:30pm 28.4 ESE 5 8 1010.2 - 0.0 - - 10 - - - -
30/07:00pm 28.7 ESE 5 8 1009.8 - 0.0 - - 10 - - - -
30/06:30pm 29.2 ESE 8 12 1009.4 - 0.0 - - 10 - - - -
30/06:00pm 29.9 ESE 8 12 1008.8 - 0.0 - - 10 - - - -
30/05:30pm 30.2 ESE 11 15 1008.8 - 0.0 - - 10 - - - -
30/05:00pm 30.7 E 9 15 1008.8 - 0.0 - - 10 - - - -
30/04:30pm 31.1 E 13 18 1008.8 - 0.0 - - 10 - - - -
30/04:00pm 31.6 ESE 14 20 1008.9 - 0.0 - Partly cloudy 10 - - - -
30/03:30pm 32.0 E 9 16 1009.0 - 0.0 - - 10 - - - -
30/03:00pm 31.7 E 12 20 1009.2 - 0.0 - - 10 - - - -
30/02:30pm 30.4 E 11 17 1009.8 - 0.0 - - 10 - - - -
30/02:00pm 29.5 E 11 17 1010.3 - 0.0 - Partly cloudy 10 - - - -
30/01:55pm 29.0 E 12 17 1010.5 - 0.0 - Partly cloudy 10 - - - -
30/01:41pm 28.1 ENE 12 21 1010.9 - 0.0 - Partly cloudy 6 - - - -
30/01:30pm 29.5 ENE 14 21 1011.0 - 0.0 - Partly cloudy 10 - - - -
30/01:00pm 32.1 E 17 25 1011.1 - 0.0 - Partly cloudy 10 - - - -
30/12:30pm 32.1 ESE 14 19 1011.5 - 0.0 - Partly cloudy 10 - - - -
30/12:00pm 30.8 E 12 20 1011.9 - 0.0 - Mostly clear 10 - - - -
30/11:30am 30.6 E 14 20 1012.6 - 0.0 - Partly cloudy 10 - - - -
30/11:00am 29.7 ESE 15 20 1013.0 - 0.0 - Partly cloudy 10 - - - -
30/10:30am 29.2 E 13 17 1013.4 - 0.0 - Partly cloudy 10 - - - -
30/10:00am 29.5 E 10 16 1013.4 - 0.0 - Partly cloudy 10 - - - -
30/09:30am 28.2 E 10 14 1013.6 - 0.0 - Partly cloudy 10 - - - -
30/09:00am 27.9 ESE 9 13 1013.2 - 1.2 - - 10 - - - -
30/08:30am 26.6 SE 9 13 1013.2 - 1.2 - - 10 - - - -
30/08:00am 25.9 ESE 7 10 1013.1 - 1.2 - - 10 - - - -
30/07:30am 25.4 ESE 5 7 1012.9 - 1.2 - - 10 - - - -
30/07:00am 25.1 ESE 5 7 1012.6 - 1.2 - - 10 - - - -
30/06:30am 25.1 SE 6 9 1012.0 - 1.2 - Partly cloudy 10 - - - -
30/06:00am 25.2 ESE 7 10 1011.6 - 1.2 - Partly cloudy 10 - - - -
30/05:30am 25.3 SE 7 11 1011.7 - 1.2 - Cloudy 10 - - - -
30/05:00am 25.3 ESE 6 8 1011.5 - 1.2 - - 10 - - - -
30/04:30am 25.2 ESE 6 10 1011.2 - 1.2 - Partly cloudy 10 - - - -
30/04:00am 25.1 SE 6 9 1011.1 - 1.2 - Partly cloudy 10 - - - -
30/03:30am 25.2 ESE 6 8 1011.1 - 1.2 - - 10 - - - -
30/03:00am 25.2 ESE 5 8 1011.0 - 1.2 - - 10 - - - -
30/02:30am 25.2 ESE 5 7 1011.2 - 1.2 - Partly cloudy 10 - - - -
30/02:00am 25.4 ESE 4 7 1011.5 - 1.2 - Partly cloudy 10 - - - -
30/01:30am 25.3 SE 4 7 1011.7 - 1.2 - - 10 - - - -
30/01:00am 25.2 SE 5 8 1011.8 - 1.2 - - 10 - - - -
30/12:30am 25.2 ESE 4 6 1012.2 - 1.2 - Partly cloudy 10 - - - -
30/12:00am 25.2 SE 3 5 1012.3 - 1.2 - - 10 - - - -
 
Date/Time
EST
Temp

°C
Wind Pressure Rain
since 9am
mm
Weather Cloud Vis
km
Sea
Height
m
Swell
Dir
 
Speed
knots
Gust
knots
hPa Trend Height
m
Period
s
Dir
29/11:30pm 25.4 SE 3 4 1012.8 - 1.2 - - 10 - - - -
29/11:00pm 25.6 ESE 3 5 1012.7 - 1.2 - - 10 - - - -
29/10:30pm 25.7 SE 4 6 1012.8 - 1.2 - - 10 - - - -
29/10:00pm 26.0 SE 5 8 1012.8 - 1.2 - - 10 - - - -
29/09:30pm 26.1 ESE 5 8 1012.7 - 1.2 - Partly cloudy 10 - - - -
29/09:00pm 26.2 ESE 5 8 1012.4 - 1.2 - - 10 - - - -
29/08:30pm 26.2 SE 4 7 1012.3 - 1.2 - Partly cloudy 10 - - - -
29/08:00pm 26.5 ESE 5 7 1011.9 - 1.2 - Partly cloudy 10 - - - -
29/07:30pm 26.7 ESE 7 9 1011.6 - 1.2 - Partly cloudy 10 - - - -
29/07:00pm 26.9 E 9 13 1011.2 - 1.2 - Partly cloudy 10 - - - -
29/06:30pm 26.7 E 3 4 1010.6 - 1.2 - Partly cloudy 10 - - - -
29/06:00pm 26.9 E 4 7 1010.1 - 1.2 - Cloudy 10 - - - -
29/05:53pm 26.9 E 5 8 1010.2 - 1.2 - Partly cloudy 10 - - - -
29/05:30pm 27.2 E 9 14 1010.0 - 0.8 - Partly cloudy 5 - - - -
29/05:28pm 27.4 E 8 14 1009.9 - 0.8 - Partly cloudy 6 - - - -
29/05:00pm 27.6 ENE 6 9 1009.5 - 0.6 - Partly cloudy 10 - - - -
29/04:30pm 27.1 E 12 18 1009.3 - 0.6 - Partly cloudy 9 - - - -
29/04:00pm 30.5 ESE 9 11 1008.9 - 0.2 - Partly cloudy 10 - - - -
29/03:30pm 28.7 E 7 11 1008.9 - 0.2 - Partly cloudy 9 - - - -
29/03:00pm 29.5 SE 11 14 1008.6 - 0.2 - Cloudy 10 - - - -
29/02:30pm 32.1 E 10 14 1008.6 - 0.0 - Partly cloudy 10 - - - -
29/02:00pm 31.7 E 9 13 1008.9 - 0.0 - Partly cloudy 10 - - - -
29/01:30pm 31.4 E 10 16 1009.4 - 0.0 - Partly cloudy 10 - - - -
29/01:00pm 30.7 ESE 10 16 1009.9 - 0.0 - Partly cloudy 10 - - - -
29/12:30pm 31.1 E 10 16 1010.3 - 0.0 - Partly cloudy 10 - - - -
29/12:00pm 30.9 ESE 14 21 1010.5 - 0.0 - Cloudy 10 - - - -

Other Formats:

Comma delimited format used in spreadsheet applications
http://www.bom.gov.au/fwo/IDQ60701/IDQ60701.94170.axf

JavaScript Object Notation format (JSON) in row-major order
http://www.bom.gov.au/fwo/IDQ60701/IDQ60701.94170.json